sensor_id;sensor_type;location;lat;lon;timestamp;P1;durP1;ratioP1;P2;durP2;ratioP2
21798;SDS011;24973;47.178;15.316;2023-12-29T00:01:00;20.97;;;7.63;;
21798;SDS011;24973;47.178;15.316;2023-12-29T00:03:49;11.67;;;4.50;;
21798;SDS011;24973;47.178;15.316;2023-12-29T00:06:38;12.10;;;4.67;;
21798;SDS011;24973;47.178;15.316;2023-12-29T00:09:31;13.57;;;4.60;;
21798;SDS011;24973;47.178;15.316;2023-12-29T00:12:27;14.73;;;4.80;;
21798;SDS011;24973;47.178;15.316;2023-12-29T00:15:18;11.03;;;3.93;;
21798;SDS011;24973;47.178;15.316;2023-12-29T00:18:07;22.73;;;7.33;;
21798;SDS011;24973;47.178;15.316;2023-12-29T00:20:56;12.23;;;4.17;;
21798;SDS011;24973;47.178;15.316;2023-12-29T00:23:45;10.93;;;3.77;;
21798;SDS011;24973;47.178;15.316;2023-12-29T00:26:35;10.63;;;3.77;;
21798;SDS011;24973;47.178;15.316;2023-12-29T00:29:24;11.67;;;3.83;;
21798;SDS011;24973;47.178;15.316;2023-12-29T00:32:20;11.53;;;4.20;;
21798;SDS011;24973;47.178;15.316;2023-12-29T00:35:09;22.23;;;6.97;;
21798;SDS011;24973;47.178;15.316;2023-12-29T00:37:59;14.50;;;4.93;;
21798;SDS011;24973;47.178;15.316;2023-12-29T00:40:48;14.77;;;4.80;;
21798;SDS011;24973;47.178;15.316;2023-12-29T00:43:37;19.30;;;6.37;;
21798;SDS011;24973;47.178;15.316;2023-12-29T00:46:26;10.57;;;4.00;;
21798;SDS011;24973;47.178;15.316;2023-12-29T00:49:16;20.33;;;6.30;;
21798;SDS011;24973;47.178;15.316;2023-12-29T00:52:06;26.40;;;8.00;;
21798;SDS011;24973;47.178;15.316;2023-12-29T00:54:55;11.77;;;4.13;;
21798;SDS011;24973;47.178;15.316;2023-12-29T00:57:44;12.73;;;4.30;;
21798;SDS011;24973;47.178;15.316;2023-12-29T01:00:33;26.80;;;8.43;;
21798;SDS011;24973;47.178;15.316;2023-12-29T01:03:22;12.13;;;4.27;;
21798;SDS011;24973;47.178;15.316;2023-12-29T01:06:13;11.53;;;3.90;;
21798;SDS011;24973;47.178;15.316;2023-12-29T01:09:02;21.03;;;6.50;;
21798;SDS011;24973;47.178;15.316;2023-12-29T01:11:51;9.53;;;3.33;;
21798;SDS011;24973;47.178;15.316;2023-12-29T01:14:40;10.73;;;3.63;;
21798;SDS011;24973;47.178;15.316;2023-12-29T01:17:29;22.53;;;7.10;;
21798;SDS011;24973;47.178;15.316;2023-12-29T01:20:19;11.43;;;3.80;;
21798;SDS011;24973;47.178;15.316;2023-12-29T01:23:09;23.23;;;7.00;;
21798;SDS011;24973;47.178;15.316;2023-12-29T01:25:58;9.77;;;3.40;;
21798;SDS011;24973;47.178;15.316;2023-12-29T01:28:47;11.50;;;4.00;;
21798;SDS011;24973;47.178;15.316;2023-12-29T01:31:36;11.60;;;4.20;;
21798;SDS011;24973;47.178;15.316;2023-12-29T01:34:26;10.47;;;3.57;;
21798;SDS011;24973;47.178;15.316;2023-12-29T01:37:19;13.43;;;4.57;;
21798;SDS011;24973;47.178;15.316;2023-12-29T01:40:10;25.27;;;7.93;;
21798;SDS011;24973;47.178;15.316;2023-12-29T01:43:00;17.30;;;5.63;;
21798;SDS011;24973;47.178;15.316;2023-12-29T01:45:49;14.03;;;5.03;;
21798;SDS011;24973;47.178;15.316;2023-12-29T01:48:40;6.93;;;2.73;;
21798;SDS011;24973;47.178;15.316;2023-12-29T01:51:29;10.40;;;3.67;;
21798;SDS011;24973;47.178;15.316;2023-12-29T01:54:20;11.13;;;3.73;;
21798;SDS011;24973;47.178;15.316;2023-12-29T01:57:11;20.60;;;6.37;;
21798;SDS011;24973;47.178;15.316;2023-12-29T02:00:00;14.60;;;4.97;;
21798;SDS011;24973;47.178;15.316;2023-12-29T02:02:50;5.03;;;1.93;;
21798;SDS011;24973;47.178;15.316;2023-12-29T02:05:39;10.40;;;3.27;;
21798;SDS011;24973;47.178;15.316;2023-12-29T02:08:28;11.97;;;3.73;;
21798;SDS011;24973;47.178;15.316;2023-12-29T02:11:18;5.03;;;1.73;;
21798;SDS011;24973;47.178;15.316;2023-12-29T02:14:08;15.60;;;4.83;;
21798;SDS011;24973;47.178;15.316;2023-12-29T02:16:59;9.40;;;3.10;;
21798;SDS011;24973;47.178;15.316;2023-12-29T02:19:53;8.93;;;2.90;;
21798;SDS011;24973;47.178;15.316;2023-12-29T02:22:42;10.67;;;3.33;;
21798;SDS011;24973;47.178;15.316;2023-12-29T02:25:33;11.27;;;3.73;;
21798;SDS011;24973;47.178;15.316;2023-12-29T02:28:22;10.67;;;3.60;;
21798;SDS011;24973;47.178;15.316;2023-12-29T02:31:14;20.33;;;6.43;;
21798;SDS011;24973;47.178;15.316;2023-12-29T02:34:06;19.73;;;6.33;;
21798;SDS011;24973;47.178;15.316;2023-12-29T02:36:57;5.40;;;2.57;;
21798;SDS011;24973;47.178;15.316;2023-12-29T02:39:47;6.93;;;2.73;;
21798;SDS011;24973;47.178;15.316;2023-12-29T02:42:38;12.57;;;4.70;;
21798;SDS011;24973;47.178;15.316;2023-12-29T02:45:27;12.03;;;3.97;;
21798;SDS011;24973;47.178;15.316;2023-12-29T02:48:16;16.47;;;5.40;;
21798;SDS011;24973;47.178;15.316;2023-12-29T02:51:05;17.73;;;5.87;;
21798;SDS011;24973;47.178;15.316;2023-12-29T02:53:55;11.77;;;4.10;;
21798;SDS011;24973;47.178;15.316;2023-12-29T02:56:44;8.17;;;3.17;;
21798;SDS011;24973;47.178;15.316;2023-12-29T02:59:35;4.43;;;1.93;;
21798;SDS011;24973;47.178;15.316;2023-12-29T03:02:25;15.33;;;4.87;;
21798;SDS011;24973;47.178;15.316;2023-12-29T03:05:14;21.00;;;6.90;;
21798;SDS011;24973;47.178;15.316;2023-12-29T03:08:03;21.03;;;6.63;;
21798;SDS011;24973;47.178;15.316;2023-12-29T03:10:53;11.33;;;4.00;;
21798;SDS011;24973;47.178;15.316;2023-12-29T03:13:42;19.33;;;6.23;;
21798;SDS011;24973;47.178;15.316;2023-12-29T03:16:32;12.07;;;4.40;;
21798;SDS011;24973;47.178;15.316;2023-12-29T03:19:22;13.30;;;4.83;;
21798;SDS011;24973;47.178;15.316;2023-12-29T03:22:11;26.40;;;8.30;;
21798;SDS011;24973;47.178;15.316;2023-12-29T03:25:00;10.60;;;3.93;;
21798;SDS011;24973;47.178;15.316;2023-12-29T03:27:49;9.23;;;3.60;;
21798;SDS011;24973;47.178;15.316;2023-12-29T03:30:38;16.90;;;5.77;;
21798;SDS011;24973;47.178;15.316;2023-12-29T03:33:29;21.53;;;7.37;;
21798;SDS011;24973;47.178;15.316;2023-12-29T03:36:18;20.23;;;6.67;;
21798;SDS011;24973;47.178;15.316;2023-12-29T03:39:07;17.80;;;5.80;;
21798;SDS011;24973;47.178;15.316;2023-12-29T03:41:56;6.47;;;3.30;;
21798;SDS011;24973;47.178;15.316;2023-12-29T03:44:45;4.97;;;2.67;;
21798;SDS011;24973;47.178;15.316;2023-12-29T03:47:34;18.60;;;6.07;;
21798;SDS011;24973;47.178;15.316;2023-12-29T03:50:25;14.83;;;5.03;;
21798;SDS011;24973;47.178;15.316;2023-12-29T03:53:14;21.87;;;6.90;;
21798;SDS011;24973;47.178;15.316;2023-12-29T03:56:04;22.23;;;7.40;;
21798;SDS011;24973;47.178;15.316;2023-12-29T03:58:53;14.07;;;5.00;;
21798;SDS011;24973;47.178;15.316;2023-12-29T04:01:42;9.13;;;3.33;;
21798;SDS011;24973;47.178;15.316;2023-12-29T04:04:32;9.20;;;3.40;;
21798;SDS011;24973;47.178;15.316;2023-12-29T04:07:25;12.17;;;4.20;;
21798;SDS011;24973;47.178;15.316;2023-12-29T04:10:14;30.80;;;9.53;;
21798;SDS011;24973;47.178;15.316;2023-12-29T04:13:03;18.20;;;6.17;;
21798;SDS011;24973;47.178;15.316;2023-12-29T04:15:52;13.60;;;4.40;;
21798;SDS011;24973;47.178;15.316;2023-12-29T04:18:41;12.83;;;4.60;;
21798;SDS011;24973;47.178;15.316;2023-12-29T04:21:31;12.83;;;4.37;;
21798;SDS011;24973;47.178;15.316;2023-12-29T04:24:21;11.43;;;4.13;;
21798;SDS011;24973;47.178;15.316;2023-12-29T04:27:10;22.97;;;7.23;;
21798;SDS011;24973;47.178;15.316;2023-12-29T04:29:59;14.03;;;4.73;;
21798;SDS011;24973;47.178;15.316;2023-12-29T04:32:49;11.57;;;4.40;;
21798;SDS011;24973;47.178;15.316;2023-12-29T04:35:38;11.77;;;4.23;;
21798;SDS011;24973;47.178;15.316;2023-12-29T04:38:28;18.03;;;6.50;;
21798;SDS011;24973;47.178;15.316;2023-12-29T04:41:18;17.93;;;6.30;;
21798;SDS011;24973;47.178;15.316;2023-12-29T04:44:07;18.00;;;6.57;;
21798;SDS011;24973;47.178;15.316;2023-12-29T04:46:56;6.57;;;3.20;;
21798;SDS011;24973;47.178;15.316;2023-12-29T04:49:45;12.90;;;5.37;;
21798;SDS011;24973;47.178;15.316;2023-12-29T04:52:35;16.10;;;6.17;;
21798;SDS011;24973;47.178;15.316;2023-12-29T04:55:24;14.43;;;5.60;;
21798;SDS011;24973;47.178;15.316;2023-12-29T04:58:14;22.70;;;7.40;;
21798;SDS011;24973;47.178;15.316;2023-12-29T05:01:03;15.73;;;5.67;;
21798;SDS011;24973;47.178;15.316;2023-12-29T05:03:55;9.60;;;3.77;;
21798;SDS011;24973;47.178;15.316;2023-12-29T05:06:44;12.73;;;4.87;;
21798;SDS011;24973;47.178;15.316;2023-12-29T05:09:33;12.83;;;4.73;;
21798;SDS011;24973;47.178;15.316;2023-12-29T05:12:22;13.10;;;4.90;;
21798;SDS011;24973;47.178;15.316;2023-12-29T05:15:13;15.60;;;5.77;;
21798;SDS011;24973;47.178;15.316;2023-12-29T05:18:02;12.87;;;4.87;;
21798;SDS011;24973;47.178;15.316;2023-12-29T05:20:53;10.43;;;4.20;;
21798;SDS011;24973;47.178;15.316;2023-12-29T05:23:42;16.83;;;5.77;;
21798;SDS011;24973;47.178;15.316;2023-12-29T05:26:32;13.53;;;4.70;;
21798;SDS011;24973;47.178;15.316;2023-12-29T05:29:21;13.10;;;5.17;;
21798;SDS011;24973;47.178;15.316;2023-12-29T05:32:12;29.80;;;9.90;;
21798;SDS011;24973;47.178;15.316;2023-12-29T05:35:01;13.07;;;5.13;;
21798;SDS011;24973;47.178;15.316;2023-12-29T05:37:50;9.70;;;4.43;;
21798;SDS011;24973;47.178;15.316;2023-12-29T05:40:39;26.63;;;9.30;;
21798;SDS011;24973;47.178;15.316;2023-12-29T05:43:29;26.10;;;9.07;;
21798;SDS011;24973;47.178;15.316;2023-12-29T05:46:19;20.57;;;8.33;;
21798;SDS011;24973;47.178;15.316;2023-12-29T05:49:09;26.27;;;10.30;;
21798;SDS011;24973;47.178;15.316;2023-12-29T05:51:59;20.30;;;8.60;;
21798;SDS011;24973;47.178;15.316;2023-12-29T05:54:48;13.07;;;6.33;;
21798;SDS011;24973;47.178;15.316;2023-12-29T05:57:37;26.13;;;9.80;;
21798;SDS011;24973;47.178;15.316;2023-12-29T06:00:26;12.40;;;5.20;;
21798;SDS011;24973;47.178;15.316;2023-12-29T06:03:16;15.53;;;6.00;;
21798;SDS011;24973;47.178;15.316;2023-12-29T06:06:06;18.43;;;6.77;;
21798;SDS011;24973;47.178;15.316;2023-12-29T06:08:55;12.17;;;4.60;;
21798;SDS011;24973;47.178;15.316;2023-12-29T06:11:45;13.10;;;5.23;;
21798;SDS011;24973;47.178;15.316;2023-12-29T06:14:35;4.73;;;2.60;;
21798;SDS011;24973;47.178;15.316;2023-12-29T06:17:25;16.63;;;6.20;;
21798;SDS011;24973;47.178;15.316;2023-12-29T06:20:14;19.00;;;6.83;;
21798;SDS011;24973;47.178;15.316;2023-12-29T06:23:05;11.07;;;4.50;;
21798;SDS011;24973;47.178;15.316;2023-12-29T06:25:54;15.40;;;6.17;;
21798;SDS011;24973;47.178;15.316;2023-12-29T06:28:43;18.60;;;7.47;;
21798;SDS011;24973;47.178;15.316;2023-12-29T06:31:32;14.50;;;5.87;;
21798;SDS011;24973;47.178;15.316;2023-12-29T06:34:21;15.37;;;6.47;;
21798;SDS011;24973;47.178;15.316;2023-12-29T06:37:11;24.20;;;8.10;;
21798;SDS011;24973;47.178;15.316;2023-12-29T06:40:01;11.87;;;5.20;;
21798;SDS011;24973;47.178;15.316;2023-12-29T06:42:51;12.80;;;5.40;;
21798;SDS011;24973;47.178;15.316;2023-12-29T06:45:40;15.73;;;6.20;;
21798;SDS011;24973;47.178;15.316;2023-12-29T06:48:29;17.57;;;7.50;;
21798;SDS011;24973;47.178;15.316;2023-12-29T06:51:18;20.07;;;7.57;;
21798;SDS011;24973;47.178;15.316;2023-12-29T06:54:09;19.90;;;8.53;;
21798;SDS011;24973;47.178;15.316;2023-12-29T06:56:59;13.60;;;6.53;;
21798;SDS011;24973;47.178;15.316;2023-12-29T06:59:49;14.03;;;7.80;;
21798;SDS011;24973;47.178;15.316;2023-12-29T07:02:38;17.73;;;9.57;;
21798;SDS011;24973;47.178;15.316;2023-12-29T07:05:28;14.27;;;9.70;;
21798;SDS011;24973;47.178;15.316;2023-12-29T07:08:17;28.20;;;14.03;;
21798;SDS011;24973;47.178;15.316;2023-12-29T07:11:09;28.87;;;13.73;;
21798;SDS011;24973;47.178;15.316;2023-12-29T07:14:00;14.73;;;7.93;;
21798;SDS011;24973;47.178;15.316;2023-12-29T07:16:49;19.33;;;10.30;;
21798;SDS011;24973;47.178;15.316;2023-12-29T07:19:38;16.77;;;11.53;;
21798;SDS011;24973;47.178;15.316;2023-12-29T07:22:28;21.77;;;13.13;;
21798;SDS011;24973;47.178;15.316;2023-12-29T07:25:17;28.10;;;14.17;;
21798;SDS011;24973;47.178;15.316;2023-12-29T07:28:06;31.33;;;14.73;;
21798;SDS011;24973;47.178;15.316;2023-12-29T07:30:57;15.63;;;11.57;;
21798;SDS011;24973;47.178;15.316;2023-12-29T07:33:46;14.73;;;10.00;;
21798;SDS011;24973;47.178;15.316;2023-12-29T07:36:37;18.83;;;13.43;;
21798;SDS011;24973;47.178;15.316;2023-12-29T07:39:27;19.50;;;13.53;;
21798;SDS011;24973;47.178;15.316;2023-12-29T07:42:16;32.80;;;17.73;;
21798;SDS011;24973;47.178;15.316;2023-12-29T07:45:06;25.07;;;16.93;;
21798;SDS011;24973;47.178;15.316;2023-12-29T07:47:57;28.70;;;19.57;;
21798;SDS011;24973;47.178;15.316;2023-12-29T07:50:46;20.20;;;17.80;;
21798;SDS011;24973;47.178;15.316;2023-12-29T07:53:35;36.67;;;21.53;;
21798;SDS011;24973;47.178;15.316;2023-12-29T07:56:25;35.87;;;27.90;;
21798;SDS011;24973;47.178;15.316;2023-12-29T07:59:14;50.43;;;32.63;;
21798;SDS011;24973;47.178;15.316;2023-12-29T08:02:03;53.97;;;37.00;;
21798;SDS011;24973;47.178;15.316;2023-12-29T08:04:54;51.57;;;35.97;;
21798;SDS011;24973;47.178;15.316;2023-12-29T08:07:43;62.07;;;40.93;;
21798;SDS011;24973;47.178;15.316;2023-12-29T08:10:32;61.43;;;42.60;;
21798;SDS011;24973;47.178;15.316;2023-12-29T08:13:21;40.77;;;30.20;;
21798;SDS011;24973;47.178;15.316;2023-12-29T08:16:11;60.23;;;38.07;;
21798;SDS011;24973;47.178;15.316;2023-12-29T08:19:00;45.73;;;35.57;;
21798;SDS011;24973;47.178;15.316;2023-12-29T08:21:51;49.90;;;38.10;;
21798;SDS011;24973;47.178;15.316;2023-12-29T08:24:41;49.50;;;36.53;;
21798;SDS011;24973;47.178;15.316;2023-12-29T08:27:30;57.30;;;41.13;;
21798;SDS011;24973;47.178;15.316;2023-12-29T08:30:19;65.17;;;42.67;;
21798;SDS011;24973;47.178;15.316;2023-12-29T08:33:08;70.03;;;47.60;;
21798;SDS011;24973;47.178;15.316;2023-12-29T08:35:59;36.30;;;31.83;;
21798;SDS011;24973;47.178;15.316;2023-12-29T08:38:51;44.80;;;36.33;;
21798;SDS011;24973;47.178;15.316;2023-12-29T08:41:40;61.10;;;44.20;;
21798;SDS011;24973;47.178;15.316;2023-12-29T08:44:30;53.53;;;40.47;;
21798;SDS011;24973;47.178;15.316;2023-12-29T08:47:19;59.40;;;42.63;;
21798;SDS011;24973;47.178;15.316;2023-12-29T08:50:09;54.37;;;40.70;;
21798;SDS011;24973;47.178;15.316;2023-12-29T08:52:58;41.87;;;31.53;;
21798;SDS011;24973;47.178;15.316;2023-12-29T08:55:48;39.00;;;30.93;;
21798;SDS011;24973;47.178;15.316;2023-12-29T08:58:37;28.57;;;25.57;;
21798;SDS011;24973;47.178;15.316;2023-12-29T09:01:27;26.77;;;24.17;;
21798;SDS011;24973;47.178;15.316;2023-12-29T09:04:16;53.77;;;38.53;;
21798;SDS011;24973;47.178;15.316;2023-12-29T09:07:06;28.27;;;25.67;;
21798;SDS011;24973;47.178;15.316;2023-12-29T09:09:55;37.17;;;33.23;;
21798;SDS011;24973;47.178;15.316;2023-12-29T09:12:45;49.03;;;38.93;;
21798;SDS011;24973;47.178;15.316;2023-12-29T09:15:34;60.13;;;53.53;;
21798;SDS011;24973;47.178;15.316;2023-12-29T09:18:24;57.03;;;43.07;;
21798;SDS011;24973;47.178;15.316;2023-12-29T09:21:13;64.03;;;46.60;;
21798;SDS011;24973;47.178;15.316;2023-12-29T09:24:03;41.67;;;36.03;;
21798;SDS011;24973;47.178;15.316;2023-12-29T09:26:52;49.90;;;41.37;;
21798;SDS011;24973;47.178;15.316;2023-12-29T09:29:42;44.43;;;39.63;;
21798;SDS011;24973;47.178;15.316;2023-12-29T09:32:32;61.90;;;46.50;;
21798;SDS011;24973;47.178;15.316;2023-12-29T09:35:21;57.80;;;44.90;;
21798;SDS011;24973;47.178;15.316;2023-12-29T09:38:10;80.03;;;55.33;;
21798;SDS011;24973;47.178;15.316;2023-12-29T09:41:04;52.73;;;43.80;;
21798;SDS011;24973;47.178;15.316;2023-12-29T09:43:54;41.53;;;37.27;;
21798;SDS011;24973;47.178;15.316;2023-12-29T09:46:46;66.40;;;50.87;;
21798;SDS011;24973;47.178;15.316;2023-12-29T09:49:38;59.53;;;48.80;;
21798;SDS011;24973;47.178;15.316;2023-12-29T09:52:28;57.20;;;48.60;;
21798;SDS011;24973;47.178;15.316;2023-12-29T09:55:17;78.00;;;56.70;;
21798;SDS011;24973;47.178;15.316;2023-12-29T09:58:07;57.17;;;49.63;;
21798;SDS011;24973;47.178;15.316;2023-12-29T10:00:57;52.67;;;46.97;;
21798;SDS011;24973;47.178;15.316;2023-12-29T10:03:48;60.90;;;50.50;;
21798;SDS011;24973;47.178;15.316;2023-12-29T10:06:38;54.87;;;48.57;;
21798;SDS011;24973;47.178;15.316;2023-12-29T10:09:33;30.80;;;27.80;;
21798;SDS011;24973;47.178;15.316;2023-12-29T10:12:23;44.43;;;39.23;;
21798;SDS011;24973;47.178;15.316;2023-12-29T10:15:15;48.70;;;41.77;;
21798;SDS011;24973;47.178;15.316;2023-12-29T10:18:10;61.90;;;50.97;;
21798;SDS011;24973;47.178;15.316;2023-12-29T10:21:11;49.93;;;44.77;;
21798;SDS011;24973;47.178;15.316;2023-12-29T10:24:05;86.73;;;64.70;;
21798;SDS011;24973;47.178;15.316;2023-12-29T10:26:58;90.30;;;66.87;;
21798;SDS011;24973;47.178;15.316;2023-12-29T10:29:47;95.33;;;71.97;;
21798;SDS011;24973;47.178;15.316;2023-12-29T10:32:36;72.50;;;63.80;;
21798;SDS011;24973;47.178;15.316;2023-12-29T10:35:26;70.90;;;63.45;;
21798;SDS011;24973;47.178;15.316;2023-12-29T10:38:16;74.90;;;66.77;;
21798;SDS011;24973;47.178;15.316;2023-12-29T10:41:12;81.17;;;72.87;;
21798;SDS011;24973;47.178;15.316;2023-12-29T10:44:06;85.57;;;76.57;;
21798;SDS011;24973;47.178;15.316;2023-12-29T10:46:55;99.93;;;85.17;;
21798;SDS011;24973;47.178;15.316;2023-12-29T10:49:45;78.37;;;70.93;;
21798;SDS011;24973;47.178;15.316;2023-12-29T10:52:34;70.67;;;64.37;;
21798;SDS011;24973;47.178;15.316;2023-12-29T10:55:25;70.60;;;63.93;;
21798;SDS011;24973;47.178;15.316;2023-12-29T10:58:15;78.43;;;70.97;;
21798;SDS011;24973;47.178;15.316;2023-12-29T11:01:08;73.63;;;67.07;;
21798;SDS011;24973;47.178;15.316;2023-12-29T11:04:06;78.17;;;70.30;;
21798;SDS011;24973;47.178;15.316;2023-12-29T11:06:56;81.43;;;73.73;;
21798;SDS011;24973;47.178;15.316;2023-12-29T11:09:45;88.73;;;80.80;;
21798;SDS011;24973;47.178;15.316;2023-12-29T11:12:36;98.93;;;89.23;;
21798;SDS011;24973;47.178;15.316;2023-12-29T11:15:26;113.37;;;101.60;;
21798;SDS011;24973;47.178;15.316;2023-12-29T11:18:16;101.20;;;92.00;;
21798;SDS011;24973;47.178;15.316;2023-12-29T11:21:07;62.63;;;58.73;;
21798;SDS011;24973;47.178;15.316;2023-12-29T11:23:57;45.13;;;42.23;;
21798;SDS011;24973;47.178;15.316;2023-12-29T11:26:46;38.40;;;36.13;;
21798;SDS011;24973;47.178;15.316;2023-12-29T11:29:37;48.73;;;45.07;;
21798;SDS011;24973;47.178;15.316;2023-12-29T11:32:29;49.73;;;46.17;;
21798;SDS011;24973;47.178;15.316;2023-12-29T11:35:23;60.40;;;54.93;;
21798;SDS011;24973;47.178;15.316;2023-12-29T11:38:36;63.20;;;57.83;;
21798;SDS011;24973;47.178;15.316;2023-12-29T11:41:33;54.40;;;51.17;;
21798;SDS011;24973;47.178;15.316;2023-12-29T11:44:27;75.93;;;71.40;;
21798;SDS011;24973;47.178;15.316;2023-12-29T11:47:38;79.67;;;73.63;;
21798;SDS011;24973;47.178;15.316;2023-12-29T11:50:28;104.90;;;97.70;;
21798;SDS011;24973;47.178;15.316;2023-12-29T11:53:30;124.53;;;115.37;;
21798;SDS011;24973;47.178;15.316;2023-12-29T11:56:20;114.60;;;106.10;;
21798;SDS011;24973;47.178;15.316;2023-12-29T11:59:13;69.73;;;64.77;;
21798;SDS011;24973;47.178;15.316;2023-12-29T12:02:03;79.97;;;74.67;;
21798;SDS011;24973;47.178;15.316;2023-12-29T12:04:56;105.93;;;99.63;;
21798;SDS011;24973;47.178;15.316;2023-12-29T12:10:55;128.37;;;119.97;;
21798;SDS011;24973;47.178;15.316;2023-12-29T12:13:45;130.00;;;121.20;;
21798;SDS011;24973;47.178;15.316;2023-12-29T12:16:47;73.60;;;69.00;;
21798;SDS011;24973;47.178;15.316;2023-12-29T12:19:38;118.03;;;110.03;;
21798;SDS011;24973;47.178;15.316;2023-12-29T12:22:30;102.70;;;95.80;;
21798;SDS011;24973;47.178;15.316;2023-12-29T12:25:21;85.57;;;79.97;;
21798;SDS011;24973;47.178;15.316;2023-12-29T12:28:10;88.70;;;83.23;;
21798;SDS011;24973;47.178;15.316;2023-12-29T12:31:05;102.27;;;95.77;;
21798;SDS011;24973;47.178;15.316;2023-12-29T12:33:56;77.83;;;72.50;;
21798;SDS011;24973;47.178;15.316;2023-12-29T12:36:50;122.33;;;113.20;;
21798;SDS011;24973;47.178;15.316;2023-12-29T12:39:41;93.40;;;87.60;;
21798;SDS011;24973;47.178;15.316;2023-12-29T12:42:30;16.53;;;14.20;;
21798;SDS011;24973;47.178;15.316;2023-12-29T12:45:20;19.87;;;11.33;;
21798;SDS011;24973;47.178;15.316;2023-12-29T12:48:12;13.30;;;7.20;;
21798;SDS011;24973;47.178;15.316;2023-12-29T12:51:03;12.07;;;6.60;;
21798;SDS011;24973;47.178;15.316;2023-12-29T12:53:53;11.07;;;6.03;;
21798;SDS011;24973;47.178;15.316;2023-12-29T12:56:43;11.90;;;5.10;;
21798;SDS011;24973;47.178;15.316;2023-12-29T12:59:33;10.00;;;4.50;;
21798;SDS011;24973;47.178;15.316;2023-12-29T13:02:22;18.73;;;7.17;;
21798;SDS011;24973;47.178;15.316;2023-12-29T13:05:12;11.97;;;4.73;;
21798;SDS011;24973;47.178;15.316;2023-12-29T13:08:03;8.67;;;3.73;;
21798;SDS011;24973;47.178;15.316;2023-12-29T13:10:53;12.33;;;4.77;;
21798;SDS011;24973;47.178;15.316;2023-12-29T13:13:44;15.07;;;5.43;;
21798;SDS011;24973;47.178;15.316;2023-12-29T13:16:33;10.70;;;4.17;;
21798;SDS011;24973;47.178;15.316;2023-12-29T13:19:23;15.90;;;5.67;;
21798;SDS011;24973;47.178;15.316;2023-12-29T13:22:14;23.33;;;7.53;;
21798;SDS011;24973;47.178;15.316;2023-12-29T13:25:04;14.30;;;4.93;;
21798;SDS011;24973;47.178;15.316;2023-12-29T13:27:55;12.07;;;4.50;;
21798;SDS011;24973;47.178;15.316;2023-12-29T13:30:46;16.40;;;5.67;;
21798;SDS011;24973;47.178;15.316;2023-12-29T13:33:37;22.37;;;7.17;;
21798;SDS011;24973;47.178;15.316;2023-12-29T13:36:34;4.80;;;2.13;;
21798;SDS011;24973;47.178;15.316;2023-12-29T13:39:26;16.87;;;5.43;;
21798;SDS011;24973;47.178;15.316;2023-12-29T13:42:21;16.27;;;5.13;;
21798;SDS011;24973;47.178;15.316;2023-12-29T13:45:11;13.90;;;4.50;;
21798;SDS011;24973;47.178;15.316;2023-12-29T13:48:02;6.23;;;2.20;;
21798;SDS011;24973;47.178;15.316;2023-12-29T13:50:53;10.87;;;3.47;;
21798;SDS011;24973;47.178;15.316;2023-12-29T13:53:42;11.47;;;3.80;;
21798;SDS011;24973;47.178;15.316;2023-12-29T13:56:32;8.87;;;3.00;;
21798;SDS011;24973;47.178;15.316;2023-12-29T13:59:28;16.83;;;5.30;;
21798;SDS011;24973;47.178;15.316;2023-12-29T14:02:19;16.60;;;5.17;;
21798;SDS011;24973;47.178;15.316;2023-12-29T14:05:18;15.27;;;4.83;;
21798;SDS011;24973;47.178;15.316;2023-12-29T14:08:08;9.77;;;3.37;;
21798;SDS011;24973;47.178;15.316;2023-12-29T14:11:06;9.97;;;3.23;;
21798;SDS011;24973;47.178;15.316;2023-12-29T14:13:56;7.30;;;2.40;;
21798;SDS011;24973;47.178;15.316;2023-12-29T14:16:45;6.07;;;2.00;;
21798;SDS011;24973;47.178;15.316;2023-12-29T14:19:34;6.43;;;2.17;;
21798;SDS011;24973;47.178;15.316;2023-12-29T14:22:26;17.77;;;5.53;;
21798;SDS011;24973;47.178;15.316;2023-12-29T14:25:15;16.13;;;5.00;;
21798;SDS011;24973;47.178;15.316;2023-12-29T14:28:13;9.67;;;3.10;;
21798;SDS011;24973;47.178;15.316;2023-12-29T14:31:03;4.63;;;1.87;;
21798;SDS011;24973;47.178;15.316;2023-12-29T14:33:52;3.67;;;1.40;;
21798;SDS011;24973;47.178;15.316;2023-12-29T14:36:42;10.57;;;3.33;;
21798;SDS011;24973;47.178;15.316;2023-12-29T14:39:32;9.37;;;3.10;;
21798;SDS011;24973;47.178;15.316;2023-12-29T14:42:22;13.53;;;4.30;;
21798;SDS011;24973;47.178;15.316;2023-12-29T14:45:11;10.97;;;3.60;;
21798;SDS011;24973;47.178;15.316;2023-12-29T14:48:00;8.27;;;2.73;;
21798;SDS011;24973;47.178;15.316;2023-12-29T14:50:49;5.23;;;1.90;;
21798;SDS011;24973;47.178;15.316;2023-12-29T14:53:38;14.27;;;4.53;;
21798;SDS011;24973;47.178;15.316;2023-12-29T14:56:29;13.50;;;4.33;;
21798;SDS011;24973;47.178;15.316;2023-12-29T14:59:18;16.20;;;5.13;;
21798;SDS011;24973;47.178;15.316;2023-12-29T15:02:07;11.50;;;3.73;;
21798;SDS011;24973;47.178;15.316;2023-12-29T15:04:57;7.47;;;2.43;;
21798;SDS011;24973;47.178;15.316;2023-12-29T15:07:46;6.73;;;2.17;;
21798;SDS011;24973;47.178;15.316;2023-12-29T15:10:35;14.53;;;4.60;;
21798;SDS011;24973;47.178;15.316;2023-12-29T15:13:26;15.47;;;5.00;;
21798;SDS011;24973;47.178;15.316;2023-12-29T15:16:16;16.03;;;5.13;;
21798;SDS011;24973;47.178;15.316;2023-12-29T15:19:05;8.17;;;2.80;;
21798;SDS011;24973;47.178;15.316;2023-12-29T15:21:55;8.00;;;2.67;;
21798;SDS011;24973;47.178;15.316;2023-12-29T15:24:44;8.87;;;2.93;;
21798;SDS011;24973;47.178;15.316;2023-12-29T15:27:33;15.47;;;4.87;;
21798;SDS011;24973;47.178;15.316;2023-12-29T15:30:24;11.87;;;3.93;;
21798;SDS011;24973;47.178;15.316;2023-12-29T15:33:13;13.10;;;4.17;;
21798;SDS011;24973;47.178;15.316;2023-12-29T15:36:03;8.33;;;2.80;;
21798;SDS011;24973;47.178;15.316;2023-12-29T15:38:53;8.50;;;2.90;;
21798;SDS011;24973;47.178;15.316;2023-12-29T15:41:44;5.00;;;1.97;;
21798;SDS011;24973;47.178;15.316;2023-12-29T15:44:33;8.37;;;2.83;;
21798;SDS011;24973;47.178;15.316;2023-12-29T15:47:24;14.73;;;4.80;;
21798;SDS011;24973;47.178;15.316;2023-12-29T15:50:13;8.80;;;3.07;;
21798;SDS011;24973;47.178;15.316;2023-12-29T15:53:02;7.50;;;2.57;;
21798;SDS011;24973;47.178;15.316;2023-12-29T15:55:52;10.93;;;3.57;;
21798;SDS011;24973;47.178;15.316;2023-12-29T15:58:41;8.90;;;3.10;;
21798;SDS011;24973;47.178;15.316;2023-12-29T16:01:30;8.93;;;3.00;;
21798;SDS011;24973;47.178;15.316;2023-12-29T16:04:20;15.03;;;4.80;;
21798;SDS011;24973;47.178;15.316;2023-12-29T16:07:10;6.40;;;2.30;;
21798;SDS011;24973;47.178;15.316;2023-12-29T16:09:59;8.70;;;3.07;;
21798;SDS011;24973;47.178;15.316;2023-12-29T16:12:49;7.13;;;2.57;;
21798;SDS011;24973;47.178;15.316;2023-12-29T16:15:39;6.40;;;2.37;;
21798;SDS011;24973;47.178;15.316;2023-12-29T16:18:28;11.57;;;4.00;;
21798;SDS011;24973;47.178;15.316;2023-12-29T16:21:18;11.43;;;3.87;;
21798;SDS011;24973;47.178;15.316;2023-12-29T16:24:07;9.13;;;3.07;;
21798;SDS011;24973;47.178;15.316;2023-12-29T16:26:59;7.80;;;2.70;;
21798;SDS011;24973;47.178;15.316;2023-12-29T16:29:48;5.03;;;1.87;;
21798;SDS011;24973;47.178;15.316;2023-12-29T16:32:37;6.83;;;2.53;;
21798;SDS011;24973;47.178;15.316;2023-12-29T16:35:27;13.77;;;4.60;;